Time;durP1;ratioP1;P1;durP2;ratioP2;P2;SDS_P1;SDS_P2;PMS_P1;PMS_P2;Temp;Humidity;BMP_temperature;BMP_pressure;BME280_temperature;BME280_humidity;BME280_pressure;Samples;Min_cycle;Max_cycle;Signal;HPM_P1;HPM_P2
2022/11/18 07:59:10;;;;;;;5.55;1.58;;;;;;;;;;10622522;28;19950;-84
2022/11/18 08:04:11;;;;;;;3.88;1.77;;;;;;;;;;10622235;28;20104;-83
2022/11/18 08:09:15;;;;;;;3.80;2.40;;;;;;;;;;10576071;28;20028;-86
2022/11/18 08:14:23;;;;;;;8.10;2.13;;;;;;;;;;10591458;28;20031;-87
2022/11/18 08:19:31;;;;;;;4.13;2.08;;;;;;;;;;10573779;28;20109;-86
2022/11/18 08:24:33;;;;;;;5.95;2.45;;;;;;;;;;10576784;28;20077;-83
2022/11/18 08:29:34;;;;;;;6.65;2.53;;;;;;;;;;10576925;28;20058;-83
2022/11/18 08:34:35;;;;;;;6.72;2.88;;;;;;;;;;10583366;28;20019;-83
2022/11/18 08:39:36;;;;;;;7.80;3.30;;;;;;;;;;10580729;28;20031;-83
2022/11/18 08:44:37;;;;;;;6.60;3.33;;;;;;;;;;10600661;28;20110;-84
2022/11/18 08:49:38;;;;;;;8.07;3.15;;;;;;;;;;10580548;28;20102;-84
2022/11/18 08:54:39;;;;;;;8.07;3.55;;;;;;;;;;10598091;28;20027;-84
2022/11/18 08:59:40;;;;;;;5.50;3.13;;;;;;;;;;10598108;28;20089;-84
2022/11/18 09:04:41;;;;;;;7.18;3.03;;;;;;;;;;10579077;28;20548;-85
2022/11/18 09:09:42;;;;;;;7.90;5.10;;;;;;;;;;10581252;28;20077;-83
2022/11/18 09:14:44;;;;;;;6.72;4.03;;;;;;;;;;10601650;28;20028;-83
2022/11/18 09:19:45;;;;;;;7.15;3.97;;;;;;;;;;10582393;28;20043;-86
2022/11/18 09:24:46;;;;;;;5.43;3.72;;;;;;;;;;10583917;28;20028;-85
2022/11/18 09:29:47;;;;;;;5.70;3.45;;;;;;;;;;10584235;28;20492;-84
2022/11/18 09:34:48;;;;;;;7.53;3.35;;;;;;;;;;10583393;28;20035;-84
2022/11/18 09:39:49;;;;;;;6.68;3.60;;;;;;;;;;10582600;28;20033;-85
2022/11/18 09:45:03;;;;;;;8.65;3.78;;;;;;;;;;10582921;28;20027;-84
2022/11/18 09:50:12;;;;;;;5.55;3.53;;;;;;;;;;10581748;28;20068;-83
2022/11/18 09:55:14;;;;;;;5.57;3.17;;;;;;;;;;10577187;28;20035;-85
2022/11/18 10:00:20;;;;;;;8.18;3.15;;;;;;;;;;10580259;28;20024;-84
2022/11/18 10:05:23;;;;;;;7.88;3.38;;;;;;;;;;10580885;28;20031;-83
2022/11/18 10:10:37;;;;;;;7.43;3.80;;;;;;;;;;10585671;28;20494;-84
2022/11/18 10:15:46;;;;;;;7.32;3.38;;;;;;;;;;10583048;28;20031;-84
2022/11/18 10:20:54;;;;;;;8.77;3.42;;;;;;;;;;10579617;28;20050;-83
2022/11/18 10:25:56;;;;;;;6.90;3.30;;;;;;;;;;10590170;28;20104;-83
2022/11/18 10:31:08;;;;;;;5.60;3.17;;;;;;;;;;10578039;28;20443;-84
2022/11/18 10:36:09;;;;;;;6.50;3.53;;;;;;;;;;10580688;28;20020;-83
2022/11/18 10:41:13;;;;;;;6.90;3.55;;;;;;;;;;10583735;28;20047;-83
2022/11/18 10:46:34;;;;;;;7.20;4.18;;;;;;;;;;10578884;28;20055;-83
2022/11/18 10:51:58;;;;;;;8.38;3.85;;;;;;;;;;10578973;28;20020;-89
2022/11/18 10:57:09;;;;;;;6.45;3.80;;;;;;;;;;10578051;28;20114;-82
2022/11/18 11:02:29;;;;;;;8.80;3.65;;;;;;;;;;10579850;28;20031;-83
2022/11/18 11:07:37;;;;;;;7.18;3.47;;;;;;;;;;10582888;28;20035;-85
2022/11/18 11:12:46;;;;;;;7.60;3.83;;;;;;;;;;10577941;28;20061;-85
2022/11/18 11:23:19;;;;;;;6.43;3.40;;;;;;;;;;10596620;28;20024;-82
2022/11/18 11:28:26;;;;;;;5.97;3.28;;;;;;;;;;10578089;28;20032;-82
2022/11/18 11:33:34;;;;;;;4.63;3.13;;;;;;;;;;10577263;28;20020;-82
2022/11/18 11:38:45;;;;;;;6.20;2.80;;;;;;;;;;10576274;28;20436;-81
2022/11/18 11:43:55;;;;;;;9.35;3.25;;;;;;;;;;10584341;28;20339;-83
2022/11/18 11:49:14;;;;;;;6.10;2.92;;;;;;;;;;10610747;28;20100;-83
2022/11/18 11:54:34;;;;;;;8.88;3.35;;;;;;;;;;10618336;28;20028;-84
2022/11/18 12:00:02;;;;;;;8.20;3.60;;;;;;;;;;10600993;28;20055;-84
2022/11/18 12:05:34;;;;;;;8.90;3.50;;;;;;;;;;10613635;28;20044;-84
2022/11/18 12:11:20;;;;;;;5.05;2.85;;;;;;;;;;10592925;28;20106;-84
2022/11/18 12:16:43;;;;;;;6.55;3.63;;;;;;;;;;10393853;28;20053;-85
2022/11/18 12:27:58;;;;;;;6.40;2.92;;;;;;;;;;10393944;28;20022;-84
2022/11/18 12:33:05;;;;;;;5.68;3.15;;;;;;;;;;10423848;28;20486;-84
2022/11/18 12:44:16;;;;;;;8.77;4.93;;;;;;;;;;10430398;28;20093;-85
2022/11/18 13:01:01;;;;;;;6.30;3.95;;;;;;;;;;10424486;28;20026;-84
2022/11/18 13:12:36;;;;;;;5.10;3.00;;;;;;;;;;10634029;28;20016;-84
2022/11/18 13:24:25;;;;;;;6.03;3.60;;;;;;;;;;10468169;28;20144;-85
2022/11/18 13:30:13;;;;;;;5.67;2.87;;;;;;;;;;10389898;28;20053;-85
2022/11/18 13:35:28;;;;;;;6.10;2.90;;;;;;;;;;10365073;28;20412;-86
2022/11/18 13:41:07;;;;;;;6.65;3.20;;;;;;;;;;10378398;28;20037;-85
2022/11/18 14:03:21;;;;;;;4.57;2.83;;;;;;;;;;10615906;28;20043;-84
2022/11/18 14:48:02;;;;;;;4.60;2.45;;;;;;;;;;10615307;28;20035;-82
2022/11/18 14:53:34;;;;;;;4.47;2.50;;;;;;;;;;10580069;28;20028;-83
2022/11/18 14:58:58;;;;;;;4.88;3.10;;;;;;;;;;10618273;28;20020;-82
2022/11/18 15:04:20;;;;;;;;;;;;;;;;;;10630601;28;20039;-82
2022/11/18 15:09:21;;;;;;;5.13;2.90;;;;;;;;;;10601479;28;19904;-81
2022/11/18 15:14:27;;;;;;;8.15;3.50;;;;;;;;;;10598944;28;20098;-82
2022/11/18 15:19:57;;;;;;;5.88;2.97;;;;;;;;;;10608004;28;20083;-82
2022/11/18 15:24:58;;;;;;;5.78;2.90;;;;;;;;;;10591396;28;20349;-84
2022/11/18 15:30:05;;;;;;;6.72;3.83;;;;;;;;;;10596315;28;20138;-81
2022/11/18 15:35:42;;;;;;;8.55;4.95;;;;;;;;;;10599202;28;20027;-82
2022/11/18 15:41:15;;;;;;;7.32;4.57;;;;;;;;;;10595481;28;20027;-82
2022/11/18 15:46:48;;;;;;;6.53;4.20;;;;;;;;;;10605241;28;20051;-82
2022/11/18 15:52:31;;;;;;;7.47;4.82;;;;;;;;;;10603438;28;20023;-81
2022/11/18 16:12:45;;;;;;;8.43;5.38;;;;;;;;;;10620607;27;20084;-81
2022/11/18 16:15:42;;;;;;;9.30;7.63;;;;;;;;;;10619090;28;20028;-81
2022/11/18 16:20:11;;;;;;;6.75;4.53;;;;;;;;;;10611463;28;20039;-79
2022/11/18 16:25:59;;;;;;;7.80;5.40;;;;;;;;;;10596869;28;20031;-80
2022/11/18 16:36:41;;;;;;;7.65;6.07;;;;;;;;;;10596455;28;20035;-80
2022/11/18 16:47:38;;;;;;;8.48;6.47;;;;;;;;;;10610568;28;20063;-80
2022/11/18 16:59:14;;;;;;;8.65;6.65;;;;;;;;;;10527473;28;20040;-81
2022/11/18 17:04:29;;;;;;;8.07;6.40;;;;;;;;;;10524649;28;20037;-81
2022/11/18 17:09:38;;;;;;;8.32;6.85;;;;;;;;;;10522916;28;20077;-82
2022/11/18 17:15:01;;;;;;;7.25;6.55;;;;;;;;;;10529413;28;20040;-83
2022/11/18 17:20:30;;;;;;;8.65;5.40;;;;;;;;;;10510200;28;20036;-85
